createdAt,value
2018-12-07T00:01:15.759Z,4.70
2018-12-07T00:03:44.064Z,4.50
2018-12-07T00:06:12.367Z,4.90
2018-12-07T00:08:40.636Z,6.40
2018-12-07T00:11:08.859Z,5.07
2018-12-07T00:13:37.178Z,5.13
2018-12-07T00:16:05.471Z,5.53
2018-12-07T00:18:33.725Z,5.70
2018-12-07T00:21:01.956Z,6.07
2018-12-07T00:23:30.177Z,6.00
2018-12-07T00:25:58.403Z,5.63
2018-12-07T00:28:26.602Z,6.10
2018-12-07T00:30:57.098Z,5.83
2018-12-07T00:33:25.405Z,5.40
2018-12-07T00:35:53.700Z,4.70
2018-12-07T00:38:21.991Z,5.17
2018-12-07T00:40:50.230Z,5.80
2018-12-07T00:43:18.442Z,5.33
2018-12-07T00:45:46.673Z,6.20
2018-12-07T00:48:14.964Z,5.47
2018-12-07T00:50:43.167Z,6.87
2018-12-07T00:53:11.427Z,6.30
2018-12-07T00:55:40.415Z,6.57
2018-12-07T00:58:08.730Z,7.00
2018-12-07T01:00:37.062Z,8.47
2018-12-07T01:03:05.443Z,7.03
2018-12-07T01:05:33.746Z,8.80
2018-12-07T01:08:02.078Z,9.40
2018-12-07T01:10:30.400Z,8.67
2018-12-07T01:12:58.629Z,8.70
2018-12-07T01:15:26.939Z,9.00
2018-12-07T01:17:55.241Z,9.93
2018-12-07T01:20:23.698Z,10.30
2018-12-07T01:22:51.950Z,9.80
2018-12-07T01:25:20.184Z,10.00
2018-12-07T01:27:48.491Z,9.87
2018-12-07T01:30:16.794Z,11.00
2018-12-07T01:32:45.030Z,10.57
2018-12-07T01:35:13.355Z,11.97
2018-12-07T01:37:41.618Z,11.23
2018-12-07T01:40:09.928Z,12.63
2018-12-07T01:42:38.354Z,13.57
2018-12-07T01:45:06.849Z,14.23
2018-12-07T01:47:39.320Z,14.23
2018-12-07T01:50:07.550Z,14.70
2018-12-07T01:52:35.787Z,14.97
2018-12-07T01:55:04.187Z,16.20
2018-12-07T01:57:32.412Z,16.83
2018-12-07T02:00:00.650Z,17.53
2018-12-07T02:02:28.950Z,17.53
2018-12-07T02:04:57.198Z,17.90
2018-12-07T02:07:33.747Z,17.60
2018-12-07T02:10:02.056Z,16.73
2018-12-07T02:12:30.360Z,16.43
2018-12-07T02:14:58.584Z,16.27
2018-12-07T02:17:26.934Z,16.43
2018-12-07T02:19:55.199Z,16.27
2018-12-07T02:22:23.568Z,14.67
2018-12-07T02:24:51.787Z,14.60
2018-12-07T02:27:20.178Z,15.30
2018-12-07T02:29:48.431Z,15.00
2018-12-07T02:32:16.676Z,15.00
2018-12-07T02:34:44.910Z,14.67
2018-12-07T02:37:13.225Z,16.53
2018-12-07T02:39:41.459Z,13.63
2018-12-07T02:42:09.687Z,14.17
2018-12-07T02:44:37.955Z,13.67
2018-12-07T02:47:06.264Z,13.33
2018-12-07T02:49:34.510Z,14.73
2018-12-07T02:52:02.799Z,12.33
2018-12-07T02:54:31.028Z,14.37
2018-12-07T02:56:59.261Z,11.93
2018-12-07T02:59:27.510Z,13.27
2018-12-07T03:01:55.880Z,11.40
2018-12-07T03:04:24.180Z,12.10
2018-12-07T03:06:52.479Z,12.73
2018-12-07T03:09:20.694Z,11.50
2018-12-07T03:11:48.929Z,11.90
2018-12-07T03:14:17.277Z,13.20
2018-12-07T03:16:45.498Z,12.93
2018-12-07T03:19:13.762Z,12.80
2018-12-07T03:21:41.996Z,11.77
2018-12-07T03:24:10.230Z,10.47
2018-12-07T03:26:38.551Z,10.43
2018-12-07T03:29:06.787Z,10.17
2018-12-07T03:31:35.020Z,9.70
2018-12-07T03:34:03.424Z,8.70
2018-12-07T03:36:31.731Z,7.70
2018-12-07T03:38:59.954Z,7.63
2018-12-07T03:41:28.161Z,6.97
2018-12-07T03:43:56.392Z,7.03
2018-12-07T03:46:24.626Z,7.43
2018-12-07T03:48:53.162Z,5.73
2018-12-07T03:51:21.585Z,4.27
2018-12-07T03:53:49.835Z,4.50
2018-12-07T03:56:18.077Z,5.10
2018-12-07T03:58:46.368Z,5.80
2018-12-07T04:01:14.663Z,5.10
2018-12-07T04:03:42.972Z,5.07
2018-12-07T04:06:11.389Z,4.40
2018-12-07T04:08:39.666Z,4.87
2018-12-07T04:11:08.060Z,3.90
2018-12-07T04:13:36.302Z,4.27
2018-12-07T04:16:04.624Z,3.83
2018-12-07T04:18:32.893Z,4.97
2018-12-07T04:21:01.134Z,4.70
2018-12-07T04:23:30.695Z,4.10
2018-12-07T04:25:59.010Z,4.00
2018-12-07T04:28:27.239Z,5.00
2018-12-07T04:30:55.541Z,4.60
2018-12-07T04:33:23.773Z,4.80
2018-12-07T04:35:52.117Z,5.20
2018-12-07T04:38:20.342Z,5.47
2018-12-07T04:40:48.571Z,4.33
2018-12-07T04:43:16.898Z,4.93
2018-12-07T04:45:45.112Z,5.90
2018-12-07T04:48:13.566Z,5.13
2018-12-07T04:50:41.803Z,5.10
2018-12-07T04:53:10.056Z,5.37
2018-12-07T04:55:38.395Z,5.37
2018-12-07T04:58:06.710Z,5.93
2018-12-07T05:00:35.384Z,6.10
2018-12-07T05:03:03.698Z,6.70
2018-12-07T05:05:31.906Z,5.77
2018-12-07T05:08:00.128Z,6.50
2018-12-07T05:10:28.375Z,5.33
2018-12-07T05:12:56.678Z,6.67
2018-12-07T05:15:24.999Z,5.77
2018-12-07T05:17:53.219Z,6.43
2018-12-07T05:20:21.547Z,6.60
2018-12-07T05:22:49.783Z,7.00
2018-12-07T05:25:18.005Z,5.93
2018-12-07T05:27:46.233Z,7.37
2018-12-07T05:30:14.435Z,8.07
2018-12-07T05:32:42.655Z,7.07
2018-12-07T05:35:10.943Z,7.43
2018-12-07T05:37:39.259Z,8.27
2018-12-07T05:40:07.590Z,8.50
2018-12-07T05:42:35.798Z,8.80
2018-12-07T05:45:04.422Z,7.80
2018-12-07T05:47:32.631Z,8.67
2018-12-07T05:50:02.427Z,7.80
2018-12-07T05:52:30.658Z,7.23
2018-12-07T05:54:58.885Z,7.50
2018-12-07T05:57:27.137Z,7.67
2018-12-07T05:59:55.372Z,7.00
2018-12-07T06:02:23.679Z,6.90
2018-12-07T06:04:52.021Z,6.40
2018-12-07T06:07:20.248Z,7.40
2018-12-07T06:09:48.459Z,7.13
2018-12-07T06:12:16.686Z,6.57
2018-12-07T06:14:45.171Z,6.63
2018-12-07T06:17:13.405Z,6.20
2018-12-07T06:19:41.776Z,5.47
2018-12-07T06:22:10.031Z,6.23
2018-12-07T06:24:38.239Z,6.63
2018-12-07T06:27:06.463Z,5.80
2018-12-07T06:29:34.815Z,6.60
2018-12-07T06:32:03.138Z,6.70
2018-12-07T06:34:31.376Z,6.33
2018-12-07T06:36:59.590Z,7.50
2018-12-07T06:39:27.907Z,9.00
2018-12-07T06:41:56.155Z,8.27
2018-12-07T06:44:24.483Z,8.40
2018-12-07T06:46:52.712Z,9.03
2018-12-07T06:49:20.939Z,9.77
2018-12-07T06:51:49.278Z,9.40
2018-12-07T06:54:17.823Z,10.37
2018-12-07T06:56:46.180Z,8.57
2018-12-07T06:59:14.411Z,8.87
2018-12-07T07:01:42.660Z,8.03
2018-12-07T07:04:10.981Z,8.60
2018-12-07T07:06:39.305Z,7.53
2018-12-07T07:09:08.706Z,7.57
2018-12-07T07:11:37.037Z,7.00
2018-12-07T07:14:05.624Z,7.50
2018-12-07T07:16:33.888Z,9.43
2018-12-07T07:19:02.158Z,8.90
2018-12-07T07:21:30.411Z,8.50
2018-12-07T07:23:58.639Z,7.57
2018-12-07T07:26:26.977Z,8.77
2018-12-07T07:29:01.906Z,9.50
2018-12-07T07:31:30.190Z,9.90
2018-12-07T07:33:58.408Z,12.00
2018-12-07T07:36:26.726Z,11.20
2018-12-07T07:38:54.968Z,10.57
2018-12-07T07:41:23.288Z,12.10
2018-12-07T07:43:52.327Z,12.23
2018-12-07T07:46:21.104Z,13.07
2018-12-07T07:48:49.393Z,13.83
2018-12-07T07:51:17.667Z,12.90
2018-12-07T07:53:45.998Z,13.53
2018-12-07T07:56:15.577Z,13.67
2018-12-07T07:58:44.222Z,14.40
2018-12-07T08:01:12.581Z,12.93
2018-12-07T08:03:40.878Z,13.60
2018-12-07T08:06:09.145Z,13.50
2018-12-07T08:08:37.523Z,13.67
2018-12-07T08:11:05.804Z,13.70
2018-12-07T08:13:34.081Z,13.63
2018-12-07T08:16:02.369Z,11.90
2018-12-07T08:18:30.894Z,14.87
2018-12-07T08:20:59.182Z,13.30
2018-12-07T08:23:27.463Z,13.23
2018-12-07T08:25:56.526Z,12.93
2018-12-07T08:28:24.934Z,11.90
2018-12-07T08:30:53.346Z,13.27
2018-12-07T08:33:21.594Z,14.50
2018-12-07T08:35:49.946Z,13.60
2018-12-07T08:38:18.262Z,13.93
2018-12-07T08:40:46.630Z,13.13
2018-12-07T08:43:15.607Z,14.47
2018-12-07T08:45:43.845Z,12.00
2018-12-07T08:48:12.216Z,12.30
2018-12-07T08:50:40.470Z,14.33
2018-12-07T08:53:08.866Z,12.90
2018-12-07T08:55:37.189Z,13.70
2018-12-07T08:58:05.587Z,14.50
2018-12-07T09:00:33.979Z,14.97
2018-12-07T09:03:02.256Z,12.70
2018-12-07T09:05:30.573Z,15.43
2018-12-07T09:07:58.886Z,13.20
2018-12-07T09:10:27.162Z,13.50
2018-12-07T09:12:55.557Z,15.93
2018-12-07T09:15:24.014Z,13.03
2018-12-07T09:17:52.331Z,14.57
2018-12-07T09:20:20.643Z,12.00
2018-12-07T09:22:48.962Z,11.73
2018-12-07T09:25:17.308Z,10.13
2018-12-07T09:27:45.707Z,10.17
2018-12-07T09:30:14.155Z,10.60
2018-12-07T09:32:42.520Z,11.07
2018-12-07T09:35:10.931Z,10.23
2018-12-07T09:37:39.198Z,10.53
2018-12-07T09:40:07.715Z,10.03
2018-12-07T09:42:36.104Z,10.30
2018-12-07T09:45:05.224Z,9.03
2018-12-07T09:47:33.635Z,8.80
2018-12-07T09:50:01.925Z,9.30
2018-12-07T09:52:30.270Z,9.77
2018-12-07T09:54:58.562Z,9.13
2018-12-07T09:57:26.888Z,8.87
2018-12-07T09:59:55.254Z,9.07
2018-12-07T10:02:23.715Z,9.53
2018-12-07T10:04:52.076Z,9.13
2018-12-07T10:07:20.430Z,10.10
2018-12-07T10:09:48.781Z,8.97
2018-12-07T10:12:17.200Z,9.43
2018-12-07T10:14:45.483Z,9.57
2018-12-07T10:17:13.840Z,8.60
2018-12-07T10:19:42.388Z,10.23
2018-12-07T10:22:10.757Z,9.60
2018-12-07T10:24:39.026Z,8.63
2018-12-07T10:27:07.810Z,7.93
2018-12-07T10:29:36.141Z,8.30
2018-12-07T10:32:04.607Z,8.63
2018-12-07T10:34:33.000Z,8.33
2018-12-07T10:37:01.343Z,8.27
2018-12-07T10:39:29.703Z,9.40
2018-12-07T10:41:59.922Z,8.40
2018-12-07T10:44:28.521Z,9.23
2018-12-07T10:46:56.887Z,8.03
2018-12-07T10:49:25.249Z,7.50
2018-12-07T10:51:53.954Z,8.00
2018-12-07T10:54:22.451Z,8.20
2018-12-07T10:56:50.687Z,8.47
2018-12-07T10:59:18.928Z,7.40
2018-12-07T11:01:52.504Z,8.00
2018-12-07T11:05:27.399Z,7.70
2018-12-07T11:08:01.039Z,7.77
2018-12-07T11:10:34.832Z,7.27
2018-12-07T11:13:08.596Z,6.80
2018-12-07T11:15:42.268Z,7.23
2018-12-07T11:18:15.996Z,7.00
2018-12-07T11:20:49.570Z,6.73
2018-12-07T11:25:26.110Z,6.70
2018-12-07T11:27:59.625Z,6.90
2018-12-07T11:32:35.775Z,6.70
2018-12-07T11:35:09.216Z,5.27
2018-12-07T11:37:37.710Z,5.27
2018-12-07T11:40:07.431Z,5.80
2018-12-07T11:42:35.709Z,5.70
2018-12-07T11:45:04.356Z,4.90
2018-12-07T11:47:32.688Z,5.87
2018-12-07T11:50:00.998Z,4.87
2018-12-07T11:52:29.318Z,4.10
2018-12-07T11:54:57.543Z,5.27
2018-12-07T11:57:25.860Z,4.60
2018-12-07T11:59:54.108Z,4.40
2018-12-07T12:05:03.531Z,4.53
2018-12-07T12:07:32.774Z,4.60
2018-12-07T12:10:01.513Z,4.63
2018-12-07T12:12:29.842Z,4.63
2018-12-07T12:14:58.071Z,4.10
2018-12-07T12:17:26.323Z,4.77
2018-12-07T12:19:54.595Z,4.50
2018-12-07T12:22:22.876Z,4.10
2018-12-07T12:24:51.125Z,4.27
2018-12-07T12:27:19.356Z,4.97
2018-12-07T12:29:47.670Z,3.77
2018-12-07T12:32:15.929Z,4.40
2018-12-07T12:34:44.159Z,3.47
2018-12-07T12:37:12.480Z,3.43
2018-12-07T12:39:41.135Z,4.50
2018-12-07T12:42:09.619Z,4.00
2018-12-07T12:44:37.950Z,4.43
2018-12-07T12:47:06.863Z,4.10
2018-12-07T12:49:35.094Z,3.70
2018-12-07T12:52:03.338Z,4.90
2018-12-07T12:54:31.618Z,5.00
2018-12-07T12:56:59.839Z,4.20
2018-12-07T12:59:28.150Z,4.23
2018-12-07T13:01:56.371Z,4.10
2018-12-07T13:04:24.627Z,4.47
2018-12-07T13:06:52.944Z,4.70
2018-12-07T13:09:21.419Z,3.97
2018-12-07T13:11:49.640Z,4.50
2018-12-07T13:14:17.867Z,3.60
2018-12-07T13:16:46.214Z,3.60
2018-12-07T13:19:14.535Z,4.20
2018-12-07T13:21:43.786Z,3.83
2018-12-07T13:24:12.066Z,2.87
2018-12-07T13:26:41.502Z,3.07
2018-12-07T13:29:09.879Z,3.03
2018-12-07T13:31:38.307Z,3.10
2018-12-07T13:34:06.562Z,2.80
2018-12-07T13:36:34.937Z,2.63
2018-12-07T13:39:05.548Z,2.80
2018-12-07T13:41:33.972Z,2.83
2018-12-07T13:44:02.748Z,2.63
2018-12-07T13:46:31.145Z,3.20
2018-12-07T13:48:59.736Z,2.67
2018-12-07T13:51:28.076Z,3.23
2018-12-07T13:53:56.409Z,2.83
2018-12-07T13:56:26.704Z,3.43
2018-12-07T13:58:55.395Z,3.50
2018-12-07T14:01:23.915Z,3.13
2018-12-07T14:03:52.304Z,3.33
2018-12-07T14:06:20.599Z,4.07
2018-12-07T14:08:48.991Z,3.83
2018-12-07T14:11:17.421Z,2.80
2018-12-07T14:13:45.829Z,3.70
2018-12-07T14:16:14.226Z,3.03
2018-12-07T14:18:42.603Z,3.10
2018-12-07T14:21:10.974Z,3.93
2018-12-07T14:23:39.349Z,4.23
2018-12-07T14:26:07.833Z,3.60
2018-12-07T14:28:36.156Z,4.97
2018-12-07T14:31:04.960Z,2.30
2018-12-07T14:33:33.337Z,2.90
2018-12-07T14:36:02.105Z,3.97
2018-12-07T14:38:30.827Z,2.77
2018-12-07T14:40:59.584Z,2.73
2018-12-07T14:43:28.126Z,3.47
2018-12-07T14:45:56.456Z,2.60
2018-12-07T14:48:24.873Z,3.03
2018-12-07T14:50:53.224Z,2.50
2018-12-07T14:53:21.753Z,3.07
2018-12-07T14:55:50.204Z,2.47
2018-12-07T14:58:18.695Z,2.30
2018-12-07T15:00:47.450Z,2.70
2018-12-07T15:03:15.847Z,2.67
2018-12-07T15:05:44.266Z,2.30
2018-12-07T15:08:12.778Z,2.30
2018-12-07T15:10:41.168Z,2.77
2018-12-07T15:13:09.650Z,2.60
2018-12-07T15:15:38.309Z,3.30
2018-12-07T15:18:06.752Z,2.20
2018-12-07T15:20:35.119Z,2.73
2018-12-07T15:23:03.480Z,2.20
2018-12-07T15:25:31.938Z,2.57
2018-12-07T15:28:00.283Z,2.30
2018-12-07T15:30:28.841Z,2.83
2018-12-07T15:32:57.384Z,2.63
2018-12-07T15:35:25.674Z,2.67
2018-12-07T15:37:54.193Z,4.03
2018-12-07T15:40:23.029Z,2.50
2018-12-07T15:42:51.386Z,3.10
2018-12-07T15:45:19.966Z,2.63
2018-12-07T15:47:48.342Z,3.83
2018-12-07T15:50:18.208Z,2.20
2018-12-07T15:52:46.962Z,3.43
2018-12-07T15:55:15.331Z,2.87
2018-12-07T15:57:43.598Z,3.23
2018-12-07T16:00:12.127Z,3.10
2018-12-07T16:02:41.199Z,2.63
2018-12-07T16:05:09.571Z,2.57
2018-12-07T16:07:37.916Z,2.20
2018-12-07T16:10:07.343Z,2.47
2018-12-07T16:12:35.884Z,3.50
2018-12-07T16:15:04.794Z,3.47
2018-12-07T16:17:33.342Z,2.40
2018-12-07T16:20:01.788Z,3.07
2018-12-07T16:22:30.188Z,2.83
2018-12-07T16:24:58.720Z,3.00
2018-12-07T16:27:27.355Z,2.90
2018-12-07T16:29:55.709Z,3.30
2018-12-07T16:32:24.177Z,3.10
2018-12-07T16:34:52.758Z,2.70
2018-12-07T16:37:22.071Z,2.43
2018-12-07T16:39:50.470Z,3.40
2018-12-07T16:42:18.875Z,2.97
2018-12-07T16:44:47.123Z,3.27
2018-12-07T16:47:15.631Z,4.40
2018-12-07T16:49:44.003Z,2.63
2018-12-07T16:52:12.294Z,3.60
2018-12-07T16:54:40.901Z,4.47
2018-12-07T16:57:09.310Z,4.17
2018-12-07T16:59:37.669Z,3.90
2018-12-07T17:02:06.253Z,3.33
2018-12-07T17:04:34.685Z,3.23
2018-12-07T17:07:03.005Z,3.50
2018-12-07T17:09:31.340Z,2.90
2018-12-07T17:11:59.902Z,4.13
2018-12-07T17:14:28.867Z,3.53
2018-12-07T17:16:57.463Z,2.97
2018-12-07T17:19:32.252Z,2.93
2018-12-07T17:22:00.733Z,2.87
2018-12-07T17:24:29.089Z,3.43
2018-12-07T17:26:57.452Z,3.37
2018-12-07T17:29:25.906Z,3.83
2018-12-07T17:31:54.451Z,3.10
2018-12-07T17:34:22.844Z,3.50
2018-12-07T17:36:51.267Z,5.37
2018-12-07T17:39:19.975Z,4.17
2018-12-07T17:41:48.436Z,3.80
2018-12-07T17:44:17.814Z,3.30
2018-12-07T17:46:46.155Z,3.80
2018-12-07T17:49:14.639Z,3.40
2018-12-07T17:51:44.185Z,2.87
2018-12-07T17:54:12.520Z,4.60
2018-12-07T17:56:40.808Z,4.13
2018-12-07T17:59:09.250Z,2.57
2018-12-07T18:01:37.567Z,3.80
2018-12-07T18:04:05.793Z,3.90
2018-12-07T18:06:34.082Z,3.67
2018-12-07T18:09:02.294Z,3.37
2018-12-07T18:11:30.829Z,4.47
2018-12-07T18:13:59.419Z,2.73
2018-12-07T18:16:27.955Z,3.37
2018-12-07T18:18:56.414Z,3.03
2018-12-07T18:21:24.875Z,3.53
2018-12-07T18:23:53.353Z,4.17
2018-12-07T18:26:21.598Z,4.00
2018-12-07T18:28:49.837Z,3.73
2018-12-07T18:31:18.171Z,3.57
2018-12-07T18:33:46.751Z,3.30
2018-12-07T18:36:15.246Z,3.53
2018-12-07T18:38:43.874Z,4.97
2018-12-07T18:41:12.573Z,3.63
2018-12-07T18:43:41.108Z,3.00
2018-12-07T18:46:09.804Z,3.47
2018-12-07T18:48:38.537Z,4.50
2018-12-07T18:51:07.091Z,3.70
2018-12-07T18:53:35.685Z,3.40
2018-12-07T18:56:04.103Z,4.43
2018-12-07T18:58:32.434Z,3.17
2018-12-07T19:01:15.451Z,3.70
2018-12-07T19:03:43.848Z,3.50
2018-12-07T19:06:12.486Z,4.17
2018-12-07T19:08:41.127Z,3.43
2018-12-07T19:11:10.120Z,3.73
2018-12-07T19:13:38.437Z,3.60
2018-12-07T19:16:06.654Z,4.03
2018-12-07T19:18:34.918Z,4.43
2018-12-07T19:21:03.411Z,2.80
2018-12-07T19:23:31.905Z,4.17
2018-12-07T19:26:00.322Z,4.70
2018-12-07T19:28:28.945Z,6.30
2018-12-07T19:30:57.604Z,5.60
2018-12-07T19:33:25.967Z,4.70
2018-12-07T19:35:55.401Z,3.93
2018-12-07T19:38:23.882Z,4.10
2018-12-07T19:40:52.411Z,5.07
2018-12-07T19:43:21.173Z,4.47
2018-12-07T19:45:49.550Z,4.27
2018-12-07T19:48:18.085Z,4.50
2018-12-07T19:50:46.783Z,4.37
2018-12-07T19:53:15.174Z,4.40
2018-12-07T19:55:43.629Z,4.57
2018-12-07T19:58:12.402Z,3.97
2018-12-07T20:00:40.852Z,4.60
2018-12-07T20:03:09.182Z,3.30
2018-12-07T20:05:37.548Z,3.50
2018-12-07T20:08:05.872Z,3.30
2018-12-07T20:10:34.221Z,4.90
2018-12-07T20:13:02.811Z,4.27
2018-12-07T20:15:31.295Z,5.23
2018-12-07T20:18:00.071Z,4.57
2018-12-07T20:20:28.453Z,3.90
2018-12-07T20:22:57.050Z,3.30
2018-12-07T20:25:25.367Z,3.07
2018-12-07T20:27:53.779Z,4.47
2018-12-07T20:30:22.427Z,3.63
2018-12-07T20:32:51.157Z,4.23
2018-12-07T20:35:19.889Z,4.40
2018-12-07T20:37:48.496Z,4.43
2018-12-07T20:40:16.900Z,4.90
2018-12-07T20:42:45.213Z,3.90
2018-12-07T20:45:13.713Z,4.53
2018-12-07T20:47:42.254Z,4.67
2018-12-07T20:50:10.721Z,4.17
2018-12-07T20:52:39.246Z,5.00
2018-12-07T20:55:08.015Z,3.30
2018-12-07T20:57:36.730Z,3.47
2018-12-07T21:00:06.656Z,3.67
2018-12-07T21:02:34.917Z,3.40
2018-12-07T21:06:05.095Z,5.50
2018-12-07T21:09:46.670Z,3.83
2018-12-07T21:12:37.565Z,4.07
2018-12-07T21:15:06.462Z,3.13
2018-12-07T21:17:37.129Z,3.70
2018-12-07T21:20:15.317Z,3.20
2018-12-07T21:22:44.027Z,4.47
2018-12-07T21:25:12.400Z,4.27
2018-12-07T21:27:40.732Z,3.63
2018-12-07T21:30:52.892Z,4.13
2018-12-07T21:33:24.877Z,2.70
2018-12-07T21:36:39.416Z,3.80
2018-12-07T21:39:16.557Z,3.30
2018-12-07T21:41:45.284Z,3.63
2018-12-07T21:44:13.952Z,3.63
2018-12-07T21:46:42.754Z,4.37
2018-12-07T21:49:11.176Z,3.73
2018-12-07T21:51:54.244Z,3.90
2018-12-07T21:54:22.803Z,4.67
2018-12-07T21:56:51.480Z,3.47
2018-12-07T21:59:20.280Z,3.63
2018-12-07T22:01:48.633Z,3.50
2018-12-07T22:04:17.027Z,3.10
2018-12-07T22:06:45.496Z,4.13
2018-12-07T22:09:14.240Z,3.60
2018-12-07T22:11:42.966Z,3.87
2018-12-07T22:14:11.374Z,3.17
2018-12-07T22:16:39.666Z,3.77
2018-12-07T22:19:07.913Z,3.30
2018-12-07T22:21:36.145Z,3.37
2018-12-07T22:24:04.717Z,3.00
2018-12-07T22:26:33.576Z,2.77
2018-12-07T22:29:02.180Z,2.60
2018-12-07T22:31:30.517Z,3.60
2018-12-07T22:33:58.896Z,3.37
2018-12-07T22:36:27.267Z,3.80
2018-12-07T22:38:55.655Z,3.57
2018-12-07T22:41:24.119Z,3.10
2018-12-07T22:43:52.763Z,3.70
2018-12-07T22:46:21.273Z,4.30
2018-12-07T22:48:49.773Z,3.93
2018-12-07T22:51:23.052Z,3.47
2018-12-07T22:53:51.800Z,3.80
2018-12-07T22:56:20.119Z,4.00
2018-12-07T22:58:48.372Z,3.60
2018-12-07T23:01:16.815Z,3.70
2018-12-07T23:03:45.182Z,2.73
2018-12-07T23:06:13.451Z,4.33
2018-12-07T23:08:41.810Z,3.17
2018-12-07T23:11:10.044Z,4.10
2018-12-07T23:13:38.303Z,4.03
2018-12-07T23:16:06.536Z,4.10
2018-12-07T23:18:34.765Z,5.37
2018-12-07T23:21:03.087Z,3.50
2018-12-07T23:23:31.407Z,3.47
2018-12-07T23:25:59.651Z,3.60
2018-12-07T23:28:27.911Z,5.10
2018-12-07T23:30:56.155Z,2.93
2018-12-07T23:33:24.412Z,3.07
2018-12-07T23:35:52.661Z,4.30
2018-12-07T23:38:20.985Z,3.70
2018-12-07T23:40:49.314Z,3.50
2018-12-07T23:43:17.630Z,2.67
2018-12-07T23:45:45.963Z,3.57
2018-12-07T23:48:14.188Z,2.90
2018-12-07T23:50:42.510Z,3.53
2018-12-07T23:53:11.437Z,3.30
2018-12-07T23:55:39.676Z,4.07
2018-12-07T23:58:07.900Z,3.83
